createdAt,value
2018-12-19T00:03:00.520Z,20.57
2018-12-19T00:08:03.528Z,18.60
2018-12-19T00:13:08.110Z,19.90
2018-12-19T00:18:11.172Z,19.77
2018-12-19T00:23:13.797Z,17.93
2018-12-19T00:28:16.514Z,18.53
2018-12-19T00:33:19.798Z,16.67
2018-12-19T00:43:33.798Z,17.70
2018-12-19T00:48:37.498Z,17.63
2018-12-19T00:53:40.107Z,18.10
2018-12-19T00:58:43.785Z,18.17
2018-12-19T01:03:46.357Z,16.67
2018-12-19T01:08:48.932Z,15.47
2018-12-19T01:13:51.597Z,16.80
2018-12-19T01:18:58.350Z,17.23
2018-12-19T01:24:00.911Z,15.83
2018-12-19T01:29:03.493Z,16.80
2018-12-19T01:34:06.075Z,16.60
2018-12-19T01:39:09.161Z,15.97
2018-12-19T01:44:11.997Z,16.63
2018-12-19T01:49:14.585Z,16.43
2018-12-19T01:54:17.161Z,16.07
2018-12-19T01:59:20.188Z,16.90
2018-12-19T02:04:22.753Z,17.60
2018-12-19T02:09:29.024Z,17.03
2018-12-19T02:14:31.429Z,18.40
2018-12-19T02:19:34.005Z,17.50
2018-12-19T02:24:36.584Z,16.40
2018-12-19T02:29:39.175Z,17.87
2018-12-19T02:34:41.753Z,19.17
2018-12-19T02:39:44.883Z,16.50
2018-12-19T02:44:47.470Z,16.73
2018-12-19T02:49:50.318Z,17.30
2018-12-19T02:54:53.749Z,18.03
2018-12-19T02:59:56.449Z,17.40
2018-12-19T03:04:59.059Z,18.40
2018-12-19T03:10:01.737Z,18.13
2018-12-19T03:15:04.985Z,17.80
2018-12-19T03:20:07.647Z,17.13
2018-12-19T03:25:10.223Z,17.60
2018-12-19T03:30:13.017Z,16.67
2018-12-19T03:35:18.259Z,17.73
2018-12-19T03:40:21.448Z,16.13
2018-12-19T03:45:24.666Z,15.87
2018-12-19T03:50:27.237Z,18.00
2018-12-19T03:55:29.824Z,17.53
2018-12-19T04:00:33.097Z,18.50
2018-12-19T04:05:35.716Z,18.43
2018-12-19T04:10:38.316Z,17.77
2018-12-19T04:15:42.242Z,19.10
2018-12-19T04:20:45.146Z,17.03
2018-12-19T04:25:48.202Z,19.10
2018-12-19T04:30:52.257Z,17.83
2018-12-19T04:35:55.769Z,19.70
2018-12-19T04:40:58.365Z,20.00
2018-12-19T04:46:01.437Z,19.03
2018-12-19T04:51:04.845Z,19.53
2018-12-19T04:56:07.431Z,17.23
2018-12-19T05:01:10.447Z,20.03
2018-12-19T05:06:13.774Z,18.43
2018-12-19T05:11:16.619Z,18.03
2018-12-19T05:16:19.192Z,18.30
2018-12-19T05:21:21.924Z,18.50
2018-12-19T05:26:24.669Z,17.80
2018-12-19T05:31:27.917Z,18.30
2018-12-19T05:36:30.492Z,19.10
2018-12-19T05:41:33.073Z,18.83
2018-12-19T05:46:35.689Z,19.33
2018-12-19T05:51:38.273Z,19.30
2018-12-19T05:56:40.836Z,19.43
2018-12-19T06:01:44.455Z,19.83
2018-12-19T06:06:47.953Z,19.37
2018-12-19T06:11:50.557Z,21.87
2018-12-19T06:16:53.134Z,19.27
2018-12-19T06:21:59.224Z,19.80
2018-12-19T06:27:01.837Z,20.03
2018-12-19T06:32:07.338Z,20.57
2018-12-19T06:37:09.933Z,21.37
2018-12-19T06:42:13.941Z,21.90
2018-12-19T06:47:16.530Z,20.83
2018-12-19T06:52:19.762Z,19.70
2018-12-19T06:57:22.349Z,19.90
2018-12-19T07:02:26.316Z,18.50
2018-12-19T07:07:28.925Z,19.40
2018-12-19T07:12:33.205Z,18.37
2018-12-19T07:17:36.215Z,19.80
2018-12-19T07:22:38.818Z,19.63
2018-12-19T07:27:41.774Z,20.27
2018-12-19T07:32:44.348Z,21.40
2018-12-19T07:37:46.933Z,22.47
2018-12-19T07:42:53.381Z,20.30
2018-12-19T07:47:56.667Z,20.50
2018-12-19T07:52:59.791Z,18.37
2018-12-19T07:58:02.505Z,17.97
2018-12-19T08:03:05.101Z,19.83
2018-12-19T08:08:07.701Z,19.13
2018-12-19T08:13:10.289Z,18.83
2018-12-19T08:18:12.918Z,20.20
2018-12-19T08:23:15.505Z,19.63
2018-12-19T08:28:20.721Z,20.70
2018-12-19T08:33:23.929Z,20.73
2018-12-19T08:38:29.162Z,20.20
2018-12-19T08:43:31.745Z,21.40
2018-12-19T08:48:34.336Z,22.40
2018-12-19T08:53:37.826Z,21.97
2018-12-19T08:58:40.446Z,22.03
2018-12-19T09:03:43.024Z,20.60
2018-12-19T09:08:45.858Z,22.10
2018-12-19T09:13:48.434Z,21.77
2018-12-19T09:18:51.271Z,23.07
2018-12-19T09:23:55.389Z,21.87
2018-12-19T09:28:58.248Z,22.40
2018-12-19T09:34:00.938Z,20.90
2018-12-19T09:39:06.652Z,22.33
2018-12-19T09:44:09.317Z,21.10
2018-12-19T09:49:13.937Z,21.20
2018-12-19T09:54:17.296Z,21.53
2018-12-19T09:59:19.899Z,21.63
2018-12-19T10:04:22.750Z,21.37
2018-12-19T10:09:25.653Z,21.83
2018-12-19T10:14:30.749Z,23.17
2018-12-19T10:19:33.345Z,22.27
2018-12-19T10:24:42.603Z,22.07
2018-12-19T10:29:46.917Z,20.40
2018-12-19T10:34:49.852Z,20.70
2018-12-19T10:39:52.451Z,21.30
2018-12-19T10:44:58.195Z,21.10
2018-12-19T10:50:00.780Z,21.10
2018-12-19T10:55:04.420Z,22.57
2018-12-19T11:00:13.082Z,21.03
2018-12-19T11:05:15.690Z,20.40
2018-12-19T11:10:18.559Z,21.00
2018-12-19T11:15:21.809Z,21.50
2018-12-19T11:20:24.385Z,21.90
2018-12-19T11:25:27.048Z,21.53
2018-12-19T11:30:29.690Z,21.10
2018-12-19T11:35:32.276Z,20.80
2018-12-19T11:40:35.740Z,20.73
2018-12-19T11:45:38.729Z,22.17
2018-12-19T11:50:42.565Z,21.90
2018-12-19T11:55:45.895Z,21.00
2018-12-19T12:00:49.039Z,22.20
2018-12-19T12:05:52.461Z,21.27
2018-12-19T12:10:55.051Z,21.10
2018-12-19T12:15:58.425Z,19.70
2018-12-19T12:21:01.635Z,20.77
2018-12-19T12:26:04.265Z,19.20
2018-12-19T12:31:07.217Z,21.50
2018-12-19T12:36:09.795Z,21.20
2018-12-19T12:41:12.361Z,20.93
2018-12-19T12:46:15.255Z,20.70
2018-12-19T12:51:18.073Z,20.70
2018-12-19T12:56:20.815Z,20.83
2018-12-19T13:01:23.538Z,22.13
2018-12-19T13:06:29.986Z,20.60
2018-12-19T13:11:33.970Z,20.47
2018-12-19T13:16:39.259Z,18.97
2018-12-19T13:21:41.930Z,21.13
2018-12-19T13:26:46.276Z,20.60
2018-12-19T13:31:49.141Z,20.10
2018-12-19T13:36:51.744Z,21.97
2018-12-19T13:41:54.898Z,20.03
2018-12-19T13:46:57.796Z,20.73
2018-12-19T13:52:00.403Z,21.13
2018-12-19T13:57:06.188Z,18.73
2018-12-19T14:02:09.025Z,20.20
2018-12-19T14:07:12.190Z,19.43
2018-12-19T14:12:14.765Z,20.70
2018-12-19T14:17:17.537Z,21.33
2018-12-19T14:22:20.156Z,20.60
2018-12-19T14:27:23.377Z,22.50
2018-12-19T14:32:25.968Z,20.23
2018-12-19T14:37:31.315Z,22.00
2018-12-19T14:42:33.941Z,22.23
2018-12-19T14:47:36.690Z,21.57
2018-12-19T14:52:39.394Z,20.53
2018-12-19T14:57:41.976Z,20.40
2018-12-19T15:02:44.695Z,22.47
2018-12-19T15:07:47.294Z,20.23
2018-12-19T15:12:49.870Z,21.13
2018-12-19T15:17:53.769Z,21.40
2018-12-19T15:23:02.087Z,20.20
2018-12-19T15:28:04.722Z,20.20
2018-12-19T15:33:07.380Z,20.50
2018-12-19T15:38:11.597Z,21.10
2018-12-19T15:43:14.212Z,22.63
2018-12-19T15:48:16.813Z,22.70
2018-12-19T15:53:19.396Z,24.07
2018-12-19T15:58:21.983Z,22.97
2018-12-19T16:03:25.503Z,21.90
2018-12-19T16:08:28.533Z,22.17
2018-12-19T16:13:31.110Z,22.03
2018-12-19T16:18:33.685Z,22.70
2018-12-19T16:23:37.291Z,22.20
2018-12-19T16:28:54.585Z,23.13
2018-12-19T16:34:01.297Z,24.10
2018-12-19T16:39:07.339Z,23.20
2018-12-19T16:44:13.330Z,22.30
2018-12-19T16:49:16.528Z,23.43
2018-12-19T16:54:19.425Z,23.70
2018-12-19T16:59:23.863Z,24.53
2018-12-19T17:04:27.026Z,27.83
2018-12-19T17:09:30.105Z,26.57
2018-12-19T17:14:32.685Z,24.73
2018-12-19T17:19:35.268Z,25.37
2018-12-19T17:24:40.343Z,28.00
2018-12-19T17:29:43.992Z,26.60
2018-12-19T17:34:46.577Z,26.67
2018-12-19T17:39:49.226Z,24.57
2018-12-19T17:44:52.376Z,24.47
2018-12-19T17:49:54.969Z,23.87
2018-12-19T17:55:04.267Z,23.73
2018-12-19T18:00:08.086Z,22.40
2018-12-19T18:05:10.719Z,20.50
2018-12-19T18:10:13.953Z,19.53
2018-12-19T18:15:17.214Z,19.17
2018-12-19T18:20:19.827Z,17.00
2018-12-19T18:25:25.056Z,15.63
2018-12-19T18:30:28.910Z,15.70
2018-12-19T18:35:31.645Z,16.83
2018-12-19T18:40:34.258Z,16.57
2018-12-19T18:45:37.198Z,18.60
2018-12-19T18:50:39.804Z,17.33
2018-12-19T18:55:42.364Z,17.00
2018-12-19T19:00:46.607Z,18.97
2018-12-19T19:05:49.833Z,15.23
2018-12-19T19:10:52.448Z,16.80
2018-12-19T19:15:55.587Z,14.20
2018-12-19T19:21:04.710Z,14.47
2018-12-19T19:26:08.038Z,13.43
2018-12-19T19:31:10.625Z,14.80
2018-12-19T19:36:13.288Z,14.60
2018-12-19T19:41:15.950Z,14.47
2018-12-19T19:46:18.594Z,16.67
2018-12-19T19:51:21.174Z,18.20
2018-12-19T19:56:24.356Z,16.60
2018-12-19T20:01:27.007Z,17.10
2018-12-19T20:06:29.603Z,15.37
2018-12-19T20:11:32.460Z,15.93
2018-12-19T20:16:37.013Z,21.30
2018-12-19T20:21:39.636Z,19.67
2018-12-19T20:26:42.278Z,16.83
2018-12-19T20:31:44.863Z,15.23
2018-12-19T20:36:47.468Z,16.10
2018-12-19T20:41:50.865Z,16.00
2018-12-19T20:46:54.075Z,16.87
2018-12-19T20:51:59.302Z,17.90
2018-12-19T20:57:01.968Z,17.20
2018-12-19T21:02:05.327Z,16.30
2018-12-19T21:07:08.202Z,17.20
2018-12-19T21:12:10.830Z,17.47
2018-12-19T21:17:20.196Z,17.10
2018-12-19T21:22:25.429Z,18.07
2018-12-19T21:27:28.417Z,17.00
2018-12-19T21:32:31.184Z,15.53
2018-12-19T21:37:33.795Z,17.37
2018-12-19T21:42:36.535Z,16.00
2018-12-19T21:47:39.490Z,16.83
2018-12-19T21:52:42.436Z,17.67
2018-12-19T21:57:47.697Z,19.03
2018-12-19T22:02:50.888Z,18.23
2018-12-19T22:07:53.500Z,17.07
2018-12-19T22:12:56.168Z,15.77
2018-12-19T22:18:05.424Z,15.50
2018-12-19T22:23:08.090Z,14.80
2018-12-19T22:28:11.340Z,13.73
2018-12-19T22:33:14.689Z,15.67
2018-12-19T22:38:17.286Z,16.37
2018-12-19T22:43:20.438Z,14.80
2018-12-19T22:48:24.056Z,14.37
2018-12-19T22:53:26.701Z,15.50
2018-12-19T22:58:29.282Z,15.37
2018-12-19T23:09:11.902Z,14.47
2018-12-19T23:14:15.510Z,14.17
2018-12-19T23:19:19.919Z,14.20
2018-12-19T23:24:22.891Z,15.30
2018-12-19T23:29:25.477Z,14.13
2018-12-19T23:34:28.383Z,14.40
2018-12-19T23:39:32.286Z,15.13
2018-12-19T23:44:35.291Z,14.07
2018-12-19T23:49:39.749Z,16.43
2018-12-19T23:54:45.487Z,16.63
2018-12-19T23:59:48.177Z,17.30
